sensor_id;sensor_type;location;lat;lon;timestamp;P1;durP1;ratioP1;P2;durP2;ratioP2
39750;SDS011;37579;51.074;17.004;2023-03-14T00:01:56;5.22;;;2.20;;
39750;SDS011;37579;51.074;17.004;2023-03-14T00:04:23;6.03;;;2.28;;
39750;SDS011;37579;51.074;17.004;2023-03-14T00:06:49;4.07;;;1.80;;
39750;SDS011;37579;51.074;17.004;2023-03-14T00:09:15;8.02;;;2.58;;
39750;SDS011;37579;51.074;17.004;2023-03-14T00:11:41;3.65;;;2.15;;
39750;SDS011;37579;51.074;17.004;2023-03-14T00:14:07;5.97;;;2.30;;
39750;SDS011;37579;51.074;17.004;2023-03-14T00:16:33;5.32;;;2.28;;
39750;SDS011;37579;51.074;17.004;2023-03-14T00:18:59;4.63;;;1.98;;
39750;SDS011;37579;51.074;17.004;2023-03-14T00:21:25;3.35;;;2.20;;
39750;SDS011;37579;51.074;17.004;2023-03-14T00:23:51;4.97;;;1.83;;
39750;SDS011;37579;51.074;17.004;2023-03-14T00:26:18;4.20;;;1.88;;
39750;SDS011;37579;51.074;17.004;2023-03-14T00:28:46;5.15;;;1.90;;
39750;SDS011;37579;51.074;17.004;2023-03-14T00:31:14;4.07;;;1.95;;
39750;SDS011;37579;51.074;17.004;2023-03-14T00:33:41;5.43;;;2.13;;
39750;SDS011;37579;51.074;17.004;2023-03-14T00:36:09;3.15;;;1.90;;
39750;SDS011;37579;51.074;17.004;2023-03-14T00:38:39;5.93;;;2.50;;
39750;SDS011;37579;51.074;17.004;2023-03-14T00:41:07;2.97;;;1.98;;
39750;SDS011;37579;51.074;17.004;2023-03-14T00:43:35;4.07;;;2.22;;
39750;SDS011;37579;51.074;17.004;2023-03-14T00:46:01;5.07;;;1.90;;
39750;SDS011;37579;51.074;17.004;2023-03-14T00:48:27;4.43;;;2.05;;
39750;SDS011;37579;51.074;17.004;2023-03-14T00:50:53;3.85;;;2.13;;
39750;SDS011;37579;51.074;17.004;2023-03-14T00:53:19;3.60;;;1.88;;
39750;SDS011;37579;51.074;17.004;2023-03-14T00:55:45;3.40;;;2.20;;
39750;SDS011;37579;51.074;17.004;2023-03-14T00:58:12;4.88;;;1.67;;
39750;SDS011;37579;51.074;17.004;2023-03-14T01:00:39;4.10;;;2.53;;
39750;SDS011;37579;51.074;17.004;2023-03-14T01:03:05;5.05;;;1.90;;
39750;SDS011;37579;51.074;17.004;2023-03-14T01:05:32;4.45;;;2.65;;
39750;SDS011;37579;51.074;17.004;2023-03-14T01:07:57;3.40;;;1.73;;
39750;SDS011;37579;51.074;17.004;2023-03-14T01:10:24;3.25;;;2.00;;
39750;SDS011;37579;51.074;17.004;2023-03-14T01:12:50;4.25;;;1.98;;
39750;SDS011;37579;51.074;17.004;2023-03-14T01:15:16;2.47;;;1.75;;
39750;SDS011;37579;51.074;17.004;2023-03-14T01:17:42;3.40;;;1.98;;
39750;SDS011;37579;51.074;17.004;2023-03-14T01:20:09;4.05;;;1.60;;
39750;SDS011;37579;51.074;17.004;2023-03-14T01:22:37;3.70;;;1.70;;
39750;SDS011;37579;51.074;17.004;2023-03-14T01:25:08;3.10;;;1.75;;
39750;SDS011;37579;51.074;17.004;2023-03-14T01:27:41;2.65;;;1.60;;
39750;SDS011;37579;51.074;17.004;2023-03-14T01:30:08;3.70;;;1.98;;
39750;SDS011;37579;51.074;17.004;2023-03-14T01:32:35;4.03;;;2.00;;
39750;SDS011;37579;51.074;17.004;2023-03-14T01:35:01;3.25;;;1.55;;
39750;SDS011;37579;51.074;17.004;2023-03-14T01:37:27;2.72;;;1.58;;
39750;SDS011;37579;51.074;17.004;2023-03-14T01:39:53;2.72;;;1.60;;
39750;SDS011;37579;51.074;17.004;2023-03-14T01:42:19;3.35;;;1.63;;
39750;SDS011;37579;51.074;17.004;2023-03-14T01:44:55;3.67;;;1.85;;
39750;SDS011;37579;51.074;17.004;2023-03-14T01:47:23;3.17;;;1.60;;
39750;SDS011;37579;51.074;17.004;2023-03-14T01:49:53;2.60;;;1.55;;
39750;SDS011;37579;51.074;17.004;2023-03-14T01:52:23;3.05;;;1.90;;
39750;SDS011;37579;51.074;17.004;2023-03-14T01:55:07;3.25;;;1.50;;
39750;SDS011;37579;51.074;17.004;2023-03-14T01:57:39;2.10;;;1.35;;
39750;SDS011;37579;51.074;17.004;2023-03-14T02:00:10;2.42;;;1.58;;
39750;SDS011;37579;51.074;17.004;2023-03-14T02:02:39;3.15;;;1.63;;
39750;SDS011;37579;51.074;17.004;2023-03-14T02:05:10;2.30;;;1.50;;
39750;SDS011;37579;51.074;17.004;2023-03-14T02:07:41;3.60;;;1.77;;
39750;SDS011;37579;51.074;17.004;2023-03-14T02:10:22;3.17;;;1.52;;
39750;SDS011;37579;51.074;17.004;2023-03-14T02:12:50;2.10;;;1.30;;
39750;SDS011;37579;51.074;17.004;2023-03-14T02:15:35;2.25;;;1.55;;
39750;SDS011;37579;51.074;17.004;2023-03-14T02:26:16;2.58;;;1.40;;
39750;SDS011;37579;51.074;17.004;2023-03-14T02:28:51;2.60;;;1.80;;
39750;SDS011;37579;51.074;17.004;2023-03-14T02:31:18;3.03;;;1.70;;
39750;SDS011;37579;51.074;17.004;2023-03-14T02:33:48;4.07;;;1.38;;
39750;SDS011;37579;51.074;17.004;2023-03-14T02:36:14;2.45;;;1.60;;
39750;SDS011;37579;51.074;17.004;2023-03-14T02:41:07;1.85;;;1.48;;
39750;SDS011;37579;51.074;17.004;2023-03-14T02:43:38;2.70;;;1.40;;
39750;SDS011;37579;51.074;17.004;2023-03-14T02:46:10;2.83;;;1.58;;
39750;SDS011;37579;51.074;17.004;2023-03-14T02:51:31;2.43;;;1.60;;
39750;SDS011;37579;51.074;17.004;2023-03-14T02:53:58;2.15;;;1.58;;
39750;SDS011;37579;51.074;17.004;2023-03-14T02:56:24;2.05;;;1.25;;
39750;SDS011;37579;51.074;17.004;2023-03-14T02:58:50;2.50;;;1.48;;
39750;SDS011;37579;51.074;17.004;2023-03-14T03:01:38;1.73;;;1.20;;
39750;SDS011;37579;51.074;17.004;2023-03-14T03:04:04;2.38;;;1.35;;
39750;SDS011;37579;51.074;17.004;2023-03-14T03:06:30;2.85;;;1.42;;
39750;SDS011;37579;51.074;17.004;2023-03-14T03:08:56;1.98;;;1.40;;
39750;SDS011;37579;51.074;17.004;2023-03-14T03:11:22;2.08;;;1.15;;
39750;SDS011;37579;51.074;17.004;2023-03-14T03:13:48;4.88;;;1.65;;
39750;SDS011;37579;51.074;17.004;2023-03-14T03:16:14;2.53;;;1.45;;
39750;SDS011;37579;51.074;17.004;2023-03-14T03:18:40;1.98;;;1.25;;
39750;SDS011;37579;51.074;17.004;2023-03-14T03:21:06;2.70;;;1.10;;
39750;SDS011;37579;51.074;17.004;2023-03-14T03:23:34;2.75;;;1.40;;
39750;SDS011;37579;51.074;17.004;2023-03-14T03:26:00;2.50;;;1.52;;
39750;SDS011;37579;51.074;17.004;2023-03-14T03:28:27;2.38;;;1.60;;
39750;SDS011;37579;51.074;17.004;2023-03-14T03:30:54;2.60;;;1.15;;
39750;SDS011;37579;51.074;17.004;2023-03-14T03:33:21;4.32;;;1.38;;
39750;SDS011;37579;51.074;17.004;2023-03-14T03:35:49;2.30;;;1.23;;
39750;SDS011;37579;51.074;17.004;2023-03-14T03:38:21;2.22;;;1.30;;
39750;SDS011;37579;51.074;17.004;2023-03-14T03:40:49;1.35;;;1.05;;
39750;SDS011;37579;51.074;17.004;2023-03-14T03:43:16;1.92;;;1.17;;
39750;SDS011;37579;51.074;17.004;2023-03-14T03:45:44;2.38;;;1.25;;
39750;SDS011;37579;51.074;17.004;2023-03-14T03:48:09;2.13;;;1.00;;
39750;SDS011;37579;51.074;17.004;2023-03-14T03:50:36;1.83;;;1.25;;
39750;SDS011;37579;51.074;17.004;2023-03-14T03:53:02;2.05;;;1.13;;
39750;SDS011;37579;51.074;17.004;2023-03-14T03:55:28;2.78;;;1.35;;
39750;SDS011;37579;51.074;17.004;2023-03-14T03:57:53;1.80;;;1.08;;
39750;SDS011;37579;51.074;17.004;2023-03-14T04:00:19;2.13;;;1.20;;
39750;SDS011;37579;51.074;17.004;2023-03-14T04:02:46;2.88;;;1.38;;
39750;SDS011;37579;51.074;17.004;2023-03-14T04:05:15;1.80;;;1.05;;
39750;SDS011;37579;51.074;17.004;2023-03-14T04:07:48;1.95;;;1.15;;
39750;SDS011;37579;51.074;17.004;2023-03-14T04:10:18;2.85;;;1.20;;
39750;SDS011;37579;51.074;17.004;2023-03-14T04:13:03;1.73;;;1.20;;
39750;SDS011;37579;51.074;17.004;2023-03-14T04:15:31;2.08;;;1.05;;
39750;SDS011;37579;51.074;17.004;2023-03-14T04:18:00;1.85;;;1.10;;
39750;SDS011;37579;51.074;17.004;2023-03-14T04:20:26;2.67;;;1.50;;
39750;SDS011;37579;51.074;17.004;2023-03-14T04:22:53;1.88;;;1.20;;
39750;SDS011;37579;51.074;17.004;2023-03-14T04:25:18;2.28;;;1.25;;
39750;SDS011;37579;51.074;17.004;2023-03-14T04:27:50;1.98;;;1.13;;
39750;SDS011;37579;51.074;17.004;2023-03-14T04:30:22;1.48;;;1.20;;
39750;SDS011;37579;51.074;17.004;2023-03-14T04:32:57;3.38;;;1.42;;
39750;SDS011;37579;51.074;17.004;2023-03-14T04:35:25;1.98;;;1.20;;
39750;SDS011;37579;51.074;17.004;2023-03-14T04:37:55;1.60;;;1.00;;
39750;SDS011;37579;51.074;17.004;2023-03-14T04:40:22;1.40;;;1.00;;
39750;SDS011;37579;51.074;17.004;2023-03-14T04:42:50;1.98;;;1.25;;
39750;SDS011;37579;51.074;17.004;2023-03-14T04:45:16;1.63;;;1.17;;
39750;SDS011;37579;51.074;17.004;2023-03-14T04:47:43;1.77;;;1.10;;
39750;SDS011;37579;51.074;17.004;2023-03-14T04:50:12;1.90;;;1.20;;
39750;SDS011;37579;51.074;17.004;2023-03-14T04:52:38;1.45;;;1.02;;
39750;SDS011;37579;51.074;17.004;2023-03-14T04:55:04;1.63;;;1.05;;
39750;SDS011;37579;51.074;17.004;2023-03-14T04:57:31;1.67;;;1.20;;
39750;SDS011;37579;51.074;17.004;2023-03-14T04:59:57;4.07;;;1.20;;
39750;SDS011;37579;51.074;17.004;2023-03-14T05:02:43;1.40;;;1.00;;
39750;SDS011;37579;51.074;17.004;2023-03-14T05:05:20;1.13;;;0.90;;
39750;SDS011;37579;51.074;17.004;2023-03-14T05:08:01;1.90;;;1.00;;
39750;SDS011;37579;51.074;17.004;2023-03-14T05:10:53;2.13;;;1.13;;
39750;SDS011;37579;51.074;17.004;2023-03-14T05:13:48;1.55;;;1.00;;
39750;SDS011;37579;51.074;17.004;2023-03-14T05:16:23;1.65;;;1.10;;
39750;SDS011;37579;51.074;17.004;2023-03-14T05:19:10;1.50;;;0.75;;
39750;SDS011;37579;51.074;17.004;2023-03-14T05:21:43;1.17;;;0.90;;
39750;SDS011;37579;51.074;17.004;2023-03-14T05:24:18;1.90;;;1.20;;
39750;SDS011;37579;51.074;17.004;2023-03-14T05:27:03;1.17;;;1.00;;
39750;SDS011;37579;51.074;17.004;2023-03-14T05:29:42;2.33;;;1.20;;
39750;SDS011;37579;51.074;17.004;2023-03-14T05:32:46;1.70;;;1.00;;
39750;SDS011;37579;51.074;17.004;2023-03-14T05:35:44;2.42;;;1.10;;
39750;SDS011;37579;51.074;17.004;2023-03-14T05:38:29;1.88;;;1.00;;
39750;SDS011;37579;51.074;17.004;2023-03-14T05:41:30;1.30;;;0.98;;
39750;SDS011;37579;51.074;17.004;2023-03-14T05:43:56;2.45;;;1.15;;
39750;SDS011;37579;51.074;17.004;2023-03-14T05:46:27;2.08;;;1.20;;
39750;SDS011;37579;51.074;17.004;2023-03-14T05:49:05;2.65;;;1.00;;
39750;SDS011;37579;51.074;17.004;2023-03-14T05:51:54;1.08;;;0.88;;
39750;SDS011;37579;51.074;17.004;2023-03-14T05:54:40;1.25;;;1.00;;
39750;SDS011;37579;51.074;17.004;2023-03-14T05:57:17;1.67;;;1.10;;
39750;SDS011;37579;51.074;17.004;2023-03-14T06:00:09;2.38;;;1.40;;
39750;SDS011;37579;51.074;17.004;2023-03-14T06:02:44;1.13;;;0.82;;
39750;SDS011;37579;51.074;17.004;2023-03-14T06:05:19;1.45;;;1.00;;
39750;SDS011;37579;51.074;17.004;2023-03-14T06:07:46;1.60;;;1.05;;
39750;SDS011;37579;51.074;17.004;2023-03-14T06:10:12;2.15;;;1.00;;
39750;SDS011;37579;51.074;17.004;2023-03-14T06:12:38;1.30;;;0.85;;
39750;SDS011;37579;51.074;17.004;2023-03-14T06:15:04;1.85;;;0.80;;
39750;SDS011;37579;51.074;17.004;2023-03-14T06:17:31;2.13;;;1.20;;
39750;SDS011;37579;51.074;17.004;2023-03-14T06:20:05;1.20;;;0.88;;
39750;SDS011;37579;51.074;17.004;2023-03-14T06:22:31;1.13;;;0.80;;
39750;SDS011;37579;51.074;17.004;2023-03-14T06:24:57;2.78;;;1.42;;
39750;SDS011;37579;51.074;17.004;2023-03-14T06:27:24;1.42;;;0.80;;
39750;SDS011;37579;51.074;17.004;2023-03-14T06:29:53;1.10;;;0.88;;
39750;SDS011;37579;51.074;17.004;2023-03-14T06:32:19;1.38;;;0.80;;
39750;SDS011;37579;51.074;17.004;2023-03-14T06:34:47;2.63;;;1.05;;
39750;SDS011;37579;51.074;17.004;2023-03-14T06:37:13;1.08;;;0.90;;
39750;SDS011;37579;51.074;17.004;2023-03-14T06:39:39;1.63;;;0.82;;
39750;SDS011;37579;51.074;17.004;2023-03-14T06:42:13;1.08;;;0.80;;
39750;SDS011;37579;51.074;17.004;2023-03-14T06:44:40;3.22;;;1.00;;
39750;SDS011;37579;51.074;17.004;2023-03-14T06:47:06;1.83;;;1.00;;
39750;SDS011;37579;51.074;17.004;2023-03-14T06:49:33;1.50;;;1.08;;
39750;SDS011;37579;51.074;17.004;2023-03-14T06:52:00;1.33;;;0.93;;
39750;SDS011;37579;51.074;17.004;2023-03-14T06:54:28;3.47;;;1.00;;
39750;SDS011;37579;51.074;17.004;2023-03-14T06:56:54;1.88;;;0.80;;
39750;SDS011;37579;51.074;17.004;2023-03-14T06:59:20;1.77;;;1.08;;
39750;SDS011;37579;51.074;17.004;2023-03-14T07:01:48;0.90;;;0.70;;
39750;SDS011;37579;51.074;17.004;2023-03-14T07:04:15;1.33;;;0.93;;
39750;SDS011;37579;51.074;17.004;2023-03-14T07:06:45;1.92;;;1.00;;
39750;SDS011;37579;51.074;17.004;2023-03-14T07:09:13;1.55;;;1.08;;
39750;SDS011;37579;51.074;17.004;2023-03-14T07:11:45;2.17;;;0.90;;
39750;SDS011;37579;51.074;17.004;2023-03-14T07:14:11;3.60;;;1.40;;
39750;SDS011;37579;51.074;17.004;2023-03-14T07:16:37;2.65;;;0.98;;
39750;SDS011;37579;51.074;17.004;2023-03-14T07:19:06;2.03;;;0.90;;
39750;SDS011;37579;51.074;17.004;2023-03-14T07:21:32;1.70;;;1.10;;
39750;SDS011;37579;51.074;17.004;2023-03-14T07:24:00;2.50;;;1.30;;
39750;SDS011;37579;51.074;17.004;2023-03-14T07:26:26;5.63;;;3.22;;
39750;SDS011;37579;51.074;17.004;2023-03-14T07:28:54;5.78;;;3.33;;
39750;SDS011;37579;51.074;17.004;2023-03-14T07:31:21;3.92;;;2.80;;
39750;SDS011;37579;51.074;17.004;2023-03-14T07:33:47;4.95;;;2.47;;
39750;SDS011;37579;51.074;17.004;2023-03-14T07:36:13;4.55;;;2.38;;
39750;SDS011;37579;51.074;17.004;2023-03-14T07:38:42;3.70;;;2.30;;
39750;SDS011;37579;51.074;17.004;2023-03-14T07:41:27;3.70;;;2.20;;
39750;SDS011;37579;51.074;17.004;2023-03-14T07:44:11;3.38;;;1.98;;
39750;SDS011;37579;51.074;17.004;2023-03-14T07:46:37;3.33;;;1.90;;
39750;SDS011;37579;51.074;17.004;2023-03-14T07:49:03;5.03;;;2.40;;
39750;SDS011;37579;51.074;17.004;2023-03-14T07:51:29;3.75;;;1.90;;
39750;SDS011;37579;51.074;17.004;2023-03-14T07:53:54;3.95;;;2.35;;
39750;SDS011;37579;51.074;17.004;2023-03-14T07:56:20;3.55;;;2.00;;
39750;SDS011;37579;51.074;17.004;2023-03-14T07:58:46;4.05;;;2.10;;
39750;SDS011;37579;51.074;17.004;2023-03-14T08:01:12;3.42;;;1.70;;
39750;SDS011;37579;51.074;17.004;2023-03-14T08:03:38;4.88;;;2.15;;
39750;SDS011;37579;51.074;17.004;2023-03-14T08:06:03;5.07;;;2.30;;
39750;SDS011;37579;51.074;17.004;2023-03-14T08:08:29;3.60;;;1.85;;
39750;SDS011;37579;51.074;17.004;2023-03-14T08:10:55;4.63;;;2.08;;
39750;SDS011;37579;51.074;17.004;2023-03-14T08:13:21;7.63;;;2.15;;
39750;SDS011;37579;51.074;17.004;2023-03-14T08:15:48;4.80;;;1.88;;
39750;SDS011;37579;51.074;17.004;2023-03-14T08:18:14;2.95;;;2.20;;
39750;SDS011;37579;51.074;17.004;2023-03-14T08:20:40;3.17;;;2.08;;
39750;SDS011;37579;51.074;17.004;2023-03-14T08:23:06;4.30;;;2.00;;
39750;SDS011;37579;51.074;17.004;2023-03-14T08:25:32;5.03;;;2.00;;
39750;SDS011;37579;51.074;17.004;2023-03-14T08:27:58;2.88;;;2.03;;
39750;SDS011;37579;51.074;17.004;2023-03-14T08:30:24;3.58;;;1.90;;
39750;SDS011;37579;51.074;17.004;2023-03-14T08:32:50;7.93;;;2.65;;
39750;SDS011;37579;51.074;17.004;2023-03-14T08:35:16;6.20;;;2.70;;
39750;SDS011;37579;51.074;17.004;2023-03-14T08:37:42;7.60;;;3.53;;
39750;SDS011;37579;51.074;17.004;2023-03-14T08:40:08;6.85;;;3.40;;
39750;SDS011;37579;51.074;17.004;2023-03-14T08:42:38;8.48;;;3.80;;
39750;SDS011;37579;51.074;17.004;2023-03-14T08:45:05;7.20;;;4.10;;
39750;SDS011;37579;51.074;17.004;2023-03-14T08:47:33;8.95;;;3.85;;
39750;SDS011;37579;51.074;17.004;2023-03-14T08:49:59;10.23;;;3.97;;
39750;SDS011;37579;51.074;17.004;2023-03-14T08:52:24;7.65;;;3.60;;
39750;SDS011;37579;51.074;17.004;2023-03-14T08:54:50;9.65;;;3.75;;
39750;SDS011;37579;51.074;17.004;2023-03-14T08:57:16;7.28;;;3.85;;
39750;SDS011;37579;51.074;17.004;2023-03-14T08:59:42;9.90;;;3.78;;
39750;SDS011;37579;51.074;17.004;2023-03-14T09:02:11;8.68;;;4.13;;
39750;SDS011;37579;51.074;17.004;2023-03-14T09:04:37;8.45;;;4.13;;
39750;SDS011;37579;51.074;17.004;2023-03-14T09:07:03;8.38;;;4.05;;
39750;SDS011;37579;51.074;17.004;2023-03-14T09:09:29;12.07;;;4.78;;
39750;SDS011;37579;51.074;17.004;2023-03-14T09:11:56;12.20;;;4.95;;
39750;SDS011;37579;51.074;17.004;2023-03-14T09:14:22;10.13;;;5.38;;
39750;SDS011;37579;51.074;17.004;2023-03-14T09:16:48;10.55;;;5.68;;
39750;SDS011;37579;51.074;17.004;2023-03-14T09:19:14;10.20;;;5.20;;
39750;SDS011;37579;51.074;17.004;2023-03-14T09:21:40;9.98;;;5.25;;
39750;SDS011;37579;51.074;17.004;2023-03-14T09:24:06;9.73;;;5.10;;
39750;SDS011;37579;51.074;17.004;2023-03-14T09:26:32;11.90;;;5.88;;
39750;SDS011;37579;51.074;17.004;2023-03-14T09:28:58;10.90;;;5.10;;
39750;SDS011;37579;51.074;17.004;2023-03-14T09:31:23;10.57;;;5.55;;
39750;SDS011;37579;51.074;17.004;2023-03-14T09:33:49;11.13;;;6.38;;
39750;SDS011;37579;51.074;17.004;2023-03-14T09:36:15;9.88;;;5.68;;
39750;SDS011;37579;51.074;17.004;2023-03-14T09:38:41;11.55;;;5.70;;
39750;SDS011;37579;51.074;17.004;2023-03-14T09:41:21;9.50;;;5.18;;
39750;SDS011;37579;51.074;17.004;2023-03-14T09:43:49;9.75;;;5.18;;
39750;SDS011;37579;51.074;17.004;2023-03-14T09:46:18;11.55;;;5.53;;
39750;SDS011;37579;51.074;17.004;2023-03-14T09:48:44;9.02;;;5.18;;
39750;SDS011;37579;51.074;17.004;2023-03-14T09:51:12;9.48;;;5.50;;
39750;SDS011;37579;51.074;17.004;2023-03-14T09:53:42;9.05;;;4.93;;
39750;SDS011;37579;51.074;17.004;2023-03-14T09:56:15;9.32;;;4.95;;
39750;SDS011;37579;51.074;17.004;2023-03-14T09:58:45;8.90;;;4.40;;
39750;SDS011;37579;51.074;17.004;2023-03-14T10:01:17;10.30;;;5.47;;
39750;SDS011;37579;51.074;17.004;2023-03-14T10:03:47;9.00;;;5.22;;
39750;SDS011;37579;51.074;17.004;2023-03-14T10:06:14;8.30;;;4.80;;
39750;SDS011;37579;51.074;17.004;2023-03-14T10:08:42;8.48;;;4.82;;
39750;SDS011;37579;51.074;17.004;2023-03-14T10:11:18;7.93;;;4.95;;
39750;SDS011;37579;51.074;17.004;2023-03-14T10:16:33;17.88;;;7.15;;
39750;SDS011;37579;51.074;17.004;2023-03-14T10:19:07;36.10;;;11.63;;
39750;SDS011;37579;51.074;17.004;2023-03-14T10:21:40;27.98;;;9.43;;
39750;SDS011;37579;51.074;17.004;2023-03-14T10:24:30;32.20;;;9.73;;
39750;SDS011;37579;51.074;17.004;2023-03-14T10:26:59;29.17;;;8.93;;
39750;SDS011;37579;51.074;17.004;2023-03-14T10:29:28;25.58;;;7.40;;
39750;SDS011;37579;51.074;17.004;2023-03-14T10:34:34;20.00;;;7.80;;
39750;SDS011;37579;51.074;17.004;2023-03-14T10:40:01;16.42;;;6.97;;
39750;SDS011;37579;51.074;17.004;2023-03-14T10:42:31;11.73;;;6.28;;
39750;SDS011;37579;51.074;17.004;2023-03-14T10:45:07;15.07;;;6.43;;
39750;SDS011;37579;51.074;17.004;2023-03-14T10:47:48;20.05;;;7.45;;
39750;SDS011;37579;51.074;17.004;2023-03-14T10:52:54;18.52;;;6.57;;
39750;SDS011;37579;51.074;17.004;2023-03-14T10:55:20;16.77;;;6.38;;
39750;SDS011;37579;51.074;17.004;2023-03-14T10:57:48;18.80;;;7.03;;
39750;SDS011;37579;51.074;17.004;2023-03-14T11:00:18;21.58;;;6.85;;
39750;SDS011;37579;51.074;17.004;2023-03-14T11:11:37;6.43;;;3.13;;
39750;SDS011;37579;51.074;17.004;2023-03-14T11:14:41;5.50;;;3.20;;
39750;SDS011;37579;51.074;17.004;2023-03-14T11:24:33;4.73;;;2.73;;
39750;SDS011;37579;51.074;17.004;2023-03-14T11:33:56;4.95;;;3.03;;
39750;SDS011;37579;51.074;17.004;2023-03-14T11:36:33;5.38;;;2.55;;
39750;SDS011;37579;51.074;17.004;2023-03-14T11:39:03;4.82;;;2.47;;
39750;SDS011;37579;51.074;17.004;2023-03-14T11:41:39;4.40;;;2.33;;
39750;SDS011;37579;51.074;17.004;2023-03-14T11:44:50;6.00;;;3.03;;
39750;SDS011;37579;51.074;17.004;2023-03-14T11:47:03;6.10;;;2.83;;
39750;SDS011;37579;51.074;17.004;2023-03-14T11:49:51;4.25;;;2.30;;
39750;SDS011;37579;51.074;17.004;2023-03-14T11:52:41;5.32;;;2.55;;
39750;SDS011;37579;51.074;17.004;2023-03-14T11:55:24;5.82;;;2.25;;
39750;SDS011;37579;51.074;17.004;2023-03-14T11:57:56;5.32;;;2.40;;
39750;SDS011;37579;51.074;17.004;2023-03-14T12:00:26;4.53;;;1.92;;
39750;SDS011;37579;51.074;17.004;2023-03-14T12:10:44;5.82;;;2.28;;
39750;SDS011;37579;51.074;17.004;2023-03-14T12:18:26;4.10;;;2.03;;
39750;SDS011;37579;51.074;17.004;2023-03-14T12:21:00;5.15;;;2.50;;
39750;SDS011;37579;51.074;17.004;2023-03-14T12:23:43;4.28;;;2.30;;
39750;SDS011;37579;51.074;17.004;2023-03-14T12:26:15;5.07;;;2.13;;
39750;SDS011;37579;51.074;17.004;2023-03-14T12:42:05;4.25;;;1.75;;
39750;SDS011;37579;51.074;17.004;2023-03-14T12:44:51;3.50;;;1.90;;
39750;SDS011;37579;51.074;17.004;2023-03-14T12:49:43;3.40;;;1.88;;
39750;SDS011;37579;51.074;17.004;2023-03-14T12:52:40;3.38;;;1.98;;
39750;SDS011;37579;51.074;17.004;2023-03-14T12:55:13;3.40;;;2.03;;
39750;SDS011;37579;51.074;17.004;2023-03-14T13:00:22;3.45;;;1.88;;
39750;SDS011;37579;51.074;17.004;2023-03-14T13:02:58;5.32;;;2.30;;
39750;SDS011;37579;51.074;17.004;2023-03-14T13:06:00;2.40;;;1.87;;
39750;SDS011;37579;51.074;17.004;2023-03-14T13:11:00;4.15;;;1.90;;
39750;SDS011;37579;51.074;17.004;2023-03-14T13:13:28;3.03;;;2.03;;
39750;SDS011;37579;51.074;17.004;2023-03-14T13:15:55;4.10;;;2.13;;
39750;SDS011;37579;51.074;17.004;2023-03-14T13:18:26;3.42;;;1.92;;
39750;SDS011;37579;51.074;17.004;2023-03-14T13:21:01;4.00;;;1.90;;
39750;SDS011;37579;51.074;17.004;2023-03-14T13:23:35;2.92;;;2.22;;
39750;SDS011;37579;51.074;17.004;2023-03-14T13:26:02;3.40;;;1.95;;
39750;SDS011;37579;51.074;17.004;2023-03-14T13:28:31;3.40;;;1.73;;
39750;SDS011;37579;51.074;17.004;2023-03-14T13:31:01;5.90;;;1.70;;
39750;SDS011;37579;51.074;17.004;2023-03-14T13:33:28;4.05;;;2.00;;
39750;SDS011;37579;51.074;17.004;2023-03-14T13:35:55;3.92;;;1.75;;
39750;SDS011;37579;51.074;17.004;2023-03-14T13:38:31;3.70;;;1.80;;
39750;SDS011;37579;51.074;17.004;2023-03-14T13:41:03;3.50;;;2.13;;
39750;SDS011;37579;51.074;17.004;2023-03-14T13:43:32;3.92;;;1.80;;
39750;SDS011;37579;51.074;17.004;2023-03-14T13:46:04;6.15;;;1.98;;
39750;SDS011;37579;51.074;17.004;2023-03-14T13:48:32;3.50;;;1.90;;
39750;SDS011;37579;51.074;17.004;2023-03-14T13:51:04;4.20;;;2.28;;
39750;SDS011;37579;51.074;17.004;2023-03-14T13:53:33;4.97;;;2.00;;
39750;SDS011;37579;51.074;17.004;2023-03-14T13:56:10;3.53;;;1.70;;
39750;SDS011;37579;51.074;17.004;2023-03-14T13:58:37;3.50;;;2.22;;
39750;SDS011;37579;51.074;17.004;2023-03-14T14:03:32;3.47;;;1.80;;
39750;SDS011;37579;51.074;17.004;2023-03-14T14:06:02;4.20;;;1.98;;
39750;SDS011;37579;51.074;17.004;2023-03-14T14:08:29;3.92;;;2.10;;
39750;SDS011;37579;51.074;17.004;2023-03-14T14:10:57;4.03;;;2.00;;
39750;SDS011;37579;51.074;17.004;2023-03-14T14:13:25;3.83;;;1.67;;
39750;SDS011;37579;51.074;17.004;2023-03-14T14:15:53;2.50;;;1.65;;
39750;SDS011;37579;51.074;17.004;2023-03-14T14:18:21;3.05;;;1.90;;
39750;SDS011;37579;51.074;17.004;2023-03-14T14:20:50;4.88;;;1.90;;
39750;SDS011;37579;51.074;17.004;2023-03-14T14:23:20;2.80;;;1.95;;
39750;SDS011;37579;51.074;17.004;2023-03-14T14:25:51;2.67;;;1.85;;
39750;SDS011;37579;51.074;17.004;2023-03-14T14:28:25;3.05;;;1.83;;
39750;SDS011;37579;51.074;17.004;2023-03-14T14:33:56;3.28;;;2.10;;
39750;SDS011;37579;51.074;17.004;2023-03-14T14:36:31;3.28;;;1.95;;
39750;SDS011;37579;51.074;17.004;2023-03-14T14:41:49;2.83;;;1.70;;
39750;SDS011;37579;51.074;17.004;2023-03-14T14:44:17;5.40;;;2.22;;
39750;SDS011;37579;51.074;17.004;2023-03-14T14:46:54;2.85;;;2.05;;
39750;SDS011;37579;51.074;17.004;2023-03-14T14:49:27;4.22;;;2.20;;
39750;SDS011;37579;51.074;17.004;2023-03-14T14:51:59;4.28;;;2.17;;
39750;SDS011;37579;51.074;17.004;2023-03-14T14:57:23;13.82;;;2.70;;
39750;SDS011;37579;51.074;17.004;2023-03-14T15:00:05;19.67;;;2.65;;
39750;SDS011;37579;51.074;17.004;2023-03-14T15:02:46;12.15;;;3.08;;
39750;SDS011;37579;51.074;17.004;2023-03-14T15:05:18;13.02;;;2.75;;
39750;SDS011;37579;51.074;17.004;2023-03-14T15:07:45;21.35;;;3.88;;
39750;SDS011;37579;51.074;17.004;2023-03-14T15:10:15;23.17;;;3.83;;
39750;SDS011;37579;51.074;17.004;2023-03-14T15:12:43;16.00;;;4.03;;
39750;SDS011;37579;51.074;17.004;2023-03-14T15:15:09;24.70;;;4.55;;
39750;SDS011;37579;51.074;17.004;2023-03-14T15:17:37;20.08;;;5.05;;
39750;SDS011;37579;51.074;17.004;2023-03-14T15:20:09;31.77;;;6.85;;
39750;SDS011;37579;51.074;17.004;2023-03-14T15:22:40;24.30;;;6.32;;
39750;SDS011;37579;51.074;17.004;2023-03-14T15:25:07;22.60;;;6.60;;
39750;SDS011;37579;51.074;17.004;2023-03-14T15:27:33;30.73;;;6.50;;
39750;SDS011;37579;51.074;17.004;2023-03-14T15:29:59;25.17;;;5.82;;
39750;SDS011;37579;51.074;17.004;2023-03-14T15:32:25;26.60;;;7.07;;
39750;SDS011;37579;51.074;17.004;2023-03-14T15:34:55;54.58;;;8.63;;
39750;SDS011;37579;51.074;17.004;2023-03-14T15:37:21;58.40;;;9.80;;
39750;SDS011;37579;51.074;17.004;2023-03-14T15:39:47;49.88;;;9.60;;
39750;SDS011;37579;51.074;17.004;2023-03-14T15:42:14;54.08;;;9.18;;
39750;SDS011;37579;51.074;17.004;2023-03-14T15:44:40;53.35;;;9.45;;
39750;SDS011;37579;51.074;17.004;2023-03-14T15:47:06;58.72;;;8.43;;
39750;SDS011;37579;51.074;17.004;2023-03-14T15:49:33;45.65;;;8.52;;
39750;SDS011;37579;51.074;17.004;2023-03-14T15:52:00;53.55;;;7.90;;
39750;SDS011;37579;51.074;17.004;2023-03-14T15:54:25;42.70;;;7.78;;
39750;SDS011;37579;51.074;17.004;2023-03-14T15:56:57;43.78;;;8.52;;
39750;SDS011;37579;51.074;17.004;2023-03-14T15:59:24;48.80;;;7.80;;
39750;SDS011;37579;51.074;17.004;2023-03-14T16:01:50;37.85;;;8.68;;
39750;SDS011;37579;51.074;17.004;2023-03-14T16:04:16;39.30;;;7.65;;
39750;SDS011;37579;51.074;17.004;2023-03-14T16:06:43;35.13;;;6.93;;
39750;SDS011;37579;51.074;17.004;2023-03-14T16:09:12;37.25;;;7.97;;
39750;SDS011;37579;51.074;17.004;2023-03-14T16:11:38;41.65;;;9.07;;
39750;SDS011;37579;51.074;17.004;2023-03-14T16:14:05;34.83;;;8.70;;
39750;SDS011;37579;51.074;17.004;2023-03-14T16:16:31;44.58;;;10.38;;
39750;SDS011;37579;51.074;17.004;2023-03-14T16:18:57;57.42;;;13.38;;
39750;SDS011;37579;51.074;17.004;2023-03-14T16:21:23;49.40;;;12.73;;